Aeroporto :







RITROVATECI SU...

 
LOGIN :

Iscrizione | Disclaimer

   EN    FR    IT 

 









Sommario :    VFR   VFR Marginale   IFR   IFR Intensivo   IFR Molto Intensivo
Visibilità : 
Base nubi : 
>= 8 km
>= 3000ft
5 / 8 km
1000 / 3000 ft
1500m / 5 km
500 / 1000 ft
800 / 1500m
200 / 500 ft
< 800m
< 200 ft
Simboli :   Temporali  Nebbia  Neve Forte  Precipitazioni Forti  Vento > 20 kt






- Altitudine del aeroporto : 74 ft
- Codice IATA : PMV


SVMG - Del Caribe Int. Gen Santiago M

ULTIMO METAR :
  • 021002Z AUTO 10009KT NCD 19/24 Q1013

METARs OBSOLETI :
  • 020902Z AUTO 09009KT NCD 19/// Q1013

TAF TAF SVMG
Valido dal 02 a 06 ore il 03 a 06 ore UTC


020400Z 0206/0306 20005KT 9000 -DZ BKN016 TX31/18Z TN25/09Z
TEMPO 0206/0210 21007KT 9000 -DZ SCT070
FIR SVZM / Sudamerica



MetMap, La meteo Aeronautica in un colpo d'occhio ! - Copyright ORBIFLY Dicembre 2007 - Disclaimer

ORBIFLY MET'MAP TEAM :

Programmazione e sviluppo : Alexandra Zaïnal
Concezione : Baudouin d'Aumeries
Aiuto per la programmazione : Marc-Olivier Méhu
Supporto tecnico e logistico : Manuel Goepfert
Aiuto per la traduzione : Arnaldo La Scala

Contatto : metmap@orbifly.com




FONTI E CREDITI :

   NOAA